Mobile Regional Airport
KMOB : now visible

Aeroporto :











RITROVATECI SU...

 
LOGIN :

Iscrizione | Disclaimer

   EN    FR    IT 

 









Sommario :    VFR   VFR Marginale   IFR   IFR Intensivo   IFR Molto Intensivo
Visibilità : 
Base nubi : 
>= 8 km
>= 3000ft
5 / 8 km
1000 / 3000 ft
1500m / 5 km
500 / 1000 ft
800 / 1500m
200 / 500 ft
< 800m
< 200 ft
Simboli :   Temporali  Nebbia  Neve Forte  Precipitazioni Forti  Vento > 20 kt






- Altitudine del aeroporto : 219 ft
- Codice IATA : MOB


KMOB - Mobile Regional

ULTIMO METAR :
  • 201056Z AUTO 04003KT 3/4SM BR VV002 13/13 A3010 RMK AO2 RAB35E47 SLP190 P0000 T01280128

METARs OBSOLETI :
  • 200956Z AUTO 06004KT 1/2SM FG VV002 13/13 A3011 RMK AO2 SLP195 T01280128
  • 200923Z AUTO 06005KT 3/4SM BR VV002 12/12 A3012 RMK AO2 T01220122
  • 200909Z AUTO 06006KT 1 3/4SM BR OVC003 13/12 A3013 RMK AO2 T01280122
  • 200856Z AUTO 04006KT 6SM BR OVC003 13/12 A3013 RMK AO2 SLP203 T01280122 58009

TAF KMOB
Valido dal 20 a 12 ore il 21 a 12 ore UTC


201138Z 2012/2112 04003KT 3SM -RA BR OVC005
TEMPO 2012/2015 1SM -RA BR OVC003
FM201500 36006KT 3SM -RA BR OVC007
FM202000 35014KT 4SM RA BR OVC013
FM210000 36020KT P6SM VCSH OVC015
FM210700 36016KT P6SM SCT040



MetMap, La meteo Aeronautica in un colpo d'occhio ! - Copyright ORBIFLY Dicembre 2007 - Disclaimer

ORBIFLY MET'MAP TEAM :

Programmazione e sviluppo : Alexandra Zaïnal
Concezione : Baudouin d'Aumeries
Aiuto per la programmazione : Marc-Olivier Méhu
Supporto tecnico e logistico : Manuel Goepfert
Aiuto per la traduzione : Arnaldo La Scala

Contatto : metmap@orbifly.com




FONTI E CREDITI :

   NOAA       Earth
Advisory